^^
Saratoga-Weather Station Historical Data
Daily Summary for August 16, 2022 Units:  English    Metric   Both
Daily Weekly Monthly Yearly Custom
  High: Low: Average:
Temperature: 86.9 °F 58.8 °F 71.6 °F
Dew Point: 65.3 °F 57.4 °F 60.6 °F
Humidity: 96% 39% 72%
Wind Speed: 6.9mph 0mph 0.8mph
Wind Gust: 8mph - -
Wind- - SE
Pressure: 29.8 in 29.7 in -
Precipitation: 0 in    
Historical Graphs
 
 
Tabular Data for August 16, 2022
Time Temperature Dew Point Pressure Wind Wind Speed Wind Gust Humidity Rainfall Rate (Hourly) solar
00:03 64.8 °F 60.8 °F 29.7 in NW 0.9 mph 2 mph 87% 0 in 0 W/m2
00:08 64.6 °F 60.6 °F 29.7 in Calm   1 mph 87% 0 in 0 W/m2
00:13 64.6 °F 60.6 °F 29.7 in SW 0.9 mph 1 mph 87% 0 in 0 W/m2
00:18 64.4 °F 60.4 °F 29.7 in Calm     87% 0 in 0 W/m2
00:23 64.2 °F 60.6 °F 29.7 in Calm   1 mph 88% 0 in 0 W/m2
00:28 64.2 °F 60.6 °F 29.7 in SSW 0.9 mph 3 mph 88% 0 in 0 W/m2
00:33 64 °F 60.4 °F 29.7 in Calm   3 mph 88% 0 in 0 W/m2
00:38 64 °F 60.4 °F 29.7 in Calm   1 mph 88% 0 in 0 W/m2
00:43 64 °F 60.4 °F 29.7 in Calm     88% 0 in 0 W/m2
00:48 64 °F 60.8 °F 29.7 in Calm   1 mph 89% 0 in 0 W/m2
00:53 63.9 °F 60.6 °F 29.7 in SW 0.9 mph 1 mph 89% 0 in 0 W/m2
00:58 63.9 °F 60.6 °F 29.7 in Calm   1 mph 89% 0 in 0 W/m2
01:03 63.9 °F 60.6 °F 29.7 in Calm     89% 0 in 0 W/m2
01:08 63.9 °F 60.6 °F 29.7 in Calm   1 mph 89% 0 in 0 W/m2
01:13 63.7 °F 60.4 °F 29.7 in Calm     89% 0 in 0 W/m2
01:18 63.5 °F 60.3 °F 29.7 in Calm   1 mph 89% 0 in 0 W/m2
01:23 63.3 °F 60.1 °F 29.7 in Calm     89% 0 in 0 W/m2
01:28 63.3 °F 60.1 °F 29.7 in SW 0.9 mph 1 mph 89% 0 in 0 W/m2
01:33 63.1 °F 59.9 °F 29.7 in Calm   1 mph 89% 0 in 0 W/m2
01:38 63 °F 59.7 °F 29.7 in Calm     89% 0 in 0 W/m2
01:43 62.8 °F 59.7 °F 29.7 in Calm   1 mph 90% 0 in 0 W/m2
01:48 62.6 °F 59.5 °F 29.7 in Calm     90% 0 in 0 W/m2
01:53 62.4 °F 59.4 °F 29.7 in Calm     90% 0 in 0 W/m2
01:58 62.2 °F 59.2 °F 29.8 in Calm     90% 0 in 0 W/m2
02:03 62.2 °F 59.5 °F 29.7 in Calm     91% 0 in 0 W/m2
02:08 62.1 °F 59.4 °F 29.7 in Calm     91% 0 in 0 W/m2
02:13 62.1 °F 59.4 °F 29.7 in Calm     91% 0 in 0 W/m2
02:18 61.9 °F 59.2 °F 29.7 in Calm     91% 0 in 0 W/m2
02:23 61.9 °F 59.2 °F 29.7 in Calm     91% 0 in 0 W/m2
02:28 61.7 °F 59.4 °F 29.7 in Calm     92% 0 in 0 W/m2
02:33 61.5 °F 59.2 °F 29.7 in Calm   1 mph 92% 0 in 0 W/m2
02:38 61.5 °F 59.2 °F 29.7 in Calm     92% 0 in 0 W/m2
02:43 61.3 °F 59 °F 29.7 in Calm     92% 0 in 0 W/m2
02:48 61.3 °F 59 °F 29.7 in Calm     92% 0 in 0 W/m2
02:53 61.2 °F 58.8 °F 29.7 in Calm     92% 0 in 0 W/m2
02:58 61.2 °F 58.8 °F 29.7 in Calm     92% 0 in 0 W/m2
03:03 61 °F 59 °F 29.8 in Calm     93% 0 in 0 W/m2
03:08 61 °F 58.6 °F 29.8 in Calm     92% 0 in 0 W/m2
03:13 60.8 °F 58.5 °F 29.8 in Calm     92% 0 in 0 W/m2
03:18 61 °F 59 °F 29.7 in Calm     93% 0 in 0 W/m2
03:23 61 °F 59 °F 29.7 in Calm     93% 0 in 0 W/m2
03:28 61 °F 59 °F 29.7 in Calm     93% 0 in 0 W/m2
03:33 61 °F 59 °F 29.7 in Calm     93% 0 in 0 W/m2
03:38 61.2 °F 59.4 °F 29.7 in Calm     94% 0 in 0 W/m2
03:43 61.2 °F 59.4 °F 29.7 in Calm     94% 0 in 0 W/m2
03:48 61.2 °F 59.4 °F 29.7 in Calm     94% 0 in 0 W/m2
03:54 61.2 °F 59.4 °F 29.7 in Calm     94% 0 in 0 W/m2
03:59 61.2 °F 59.4 °F 29.7 in Calm     94% 0 in 0 W/m2
04:04 61.2 °F 59.4 °F 29.7 in Calm     94% 0 in 0 W/m2
04:09 61 °F 59.2 °F 29.7 in Calm     94% 0 in 0 W/m2
04:14 61 °F 59.2 °F 29.7 in Calm     94% 0 in 0 W/m2
04:19 61 °F 59.2 °F 29.8 in Calm     94% 0 in 0 W/m2
04:24 60.8 °F 59 °F 29.7 in Calm     94% 0 in 0 W/m2
04:29 60.6 °F 58.8 °F 29.7 in Calm     94% 0 in 0 W/m2
04:34 60.6 °F 58.8 °F 29.7 in Calm     94% 0 in 0 W/m2
04:39 60.4 °F 58.6 °F 29.7 in Calm     94% 0 in 0 W/m2
04:44 60.3 °F 58.5 °F 29.7 in Calm     94% 0 in 0 W/m2
04:49 60.3 °F 58.5 °F 29.7 in Calm     94% 0 in 0 W/m2
04:54 60.1 °F 58.3 °F 29.7 in Calm     94% 0 in 0 W/m2
04:59 60.1 °F 58.3 °F 29.7 in Calm     94% 0 in 0 W/m2
05:04 59.9 °F 58.1 °F 29.7 in Calm     94% 0 in 0 W/m2
05:09 59.9 °F 58.1 °F 29.7 in Calm     94% 0 in 0 W/m2
05:14 59.7 °F 57.9 °F 29.7 in Calm     94% 0 in 0 W/m2
05:19 59.7 °F 57.9 °F 29.7 in Calm     94% 0 in 0 W/m2
05:24 59.7 °F 57.9 °F 29.7 in Calm     94% 0 in 0 W/m2
05:29 59.7 °F 57.9 °F 29.7 in Calm     94% 0 in 0 W/m2
05:34 59.5 °F 57.7 °F 29.7 in Calm     94% 0 in 0 W/m2
05:39 59.5 °F 57.7 °F 29.7 in Calm     94% 0 in 0 W/m2
05:44 59.5 °F 57.7 °F 29.7 in Calm     94% 0 in 0 W/m2
05:49 59.4 °F 57.9 °F 29.7 in Calm     95% 0 in 0 W/m2
05:54 59.4 °F 57.6 °F 29.8 in Calm     94% 0 in 0 W/m2
05:59 59.4 °F 57.6 °F 29.7 in Calm     94% 0 in 0 W/m2
06:04 59.4 °F 57.6 °F 29.7 in Calm     94% 0 in 0 W/m2
06:09 59.2 °F 57.4 °F 29.8 in Calm     94% 0 in 0 W/m2
06:14 59.2 °F 57.7 °F 29.8 in Calm     95% 0 in 0 W/m2
06:19 59 °F 57.6 °F 29.8 in Calm     95% 0 in 0 W/m2
06:24 59 °F 57.6 °F 29.7 in Calm     95% 0 in 0 W/m2
06:29 58.8 °F 57.4 °F 29.7 in Calm     95% 0 in 0 W/m2
06:34 58.8 °F 57.4 °F 29.8 in Calm     95% 0 in 5 W/m2
06:39 58.8 °F 57.4 °F 29.8 in Calm     95% 0 in 7 W/m2
06:44 58.8 °F 57.4 °F 29.8 in Calm     95% 0 in 11 W/m2
06:49 58.8 °F 57.4 °F 29.8 in Calm     95% 0 in 12 W/m2
06:54 58.8 °F 57.4 °F 29.8 in Calm     95% 0 in 14 W/m2
06:59 58.8 °F 57.4 °F 29.8 in Calm     95% 0 in 18 W/m2
07:04 58.8 °F 57.4 °F 29.8 in Calm     95% 0 in 19 W/m2
07:09 59.2 °F 57.7 °F 29.8 in Calm     95% 0 in 25 W/m2
07:14 59.2 °F 57.7 °F 29.8 in Calm     95% 0 in 28 W/m2
07:19 59.2 °F 57.7 °F 29.8 in Calm     95% 0 in 30 W/m2
07:24 59.4 °F 57.9 °F 29.8 in Calm     95% 0 in 33 W/m2
07:29 59.5 °F 58.1 °F 29.8 in Calm     95% 0 in 39 W/m2
07:34 59.7 °F 58.6 °F 29.8 in Calm   1 mph 96% 0 in 40 W/m2
07:39 59.7 °F 58.6 °F 29.8 in NW 0.9 mph 2 mph 96% 0 in 62 W/m2
07:44 60.1 °F 59 °F 29.8 in NW 0.9 mph 1 mph 96% 0 in 90 W/m2
07:49 60.3 °F 58.8 °F 29.8 in Calm   1 mph 95% 0 in 84 W/m2
07:54 60.6 °F 59.5 °F 29.8 in Calm     96% 0 in 116 W/m2
07:59 61 °F 59.5 °F 29.8 in Calm   1 mph 95% 0 in 128 W/m2
08:04 61.2 °F 59.7 °F 29.8 in Calm   2 mph 95% 0 in 137 W/m2
08:09 61.7 °F 60.3 °F 29.8 in Calm     95% 0 in 111 W/m2
08:14 62.1 °F 60.6 °F 29.8 in Calm   2 mph 95% 0 in 72 W/m2
08:19 62.2 °F 60.4 °F 29.8 in Calm     94% 0 in 60 W/m2
08:24 63.1 °F 61.3 °F 29.8 in Calm   2 mph 94% 0 in 58 W/m2
08:29 63.7 °F 61.7 °F 29.8 in Calm   1 mph 93% 0 in 54 W/m2
08:34 64.2 °F 61.5 °F 29.8 in Calm   2 mph 91% 0 in 53 W/m2
08:39 65.1 °F 62.1 °F 29.8 in Calm     90% 0 in 49 W/m2
08:44 66 °F 62.6 °F 29.8 in Calm   2 mph 89% 0 in 49 W/m2
08:49 66.9 °F 63 °F 29.8 in Calm   1 mph 87% 0 in 49 W/m2
08:54 67.3 °F 63 °F 29.8 in East 2.9 mph 3 mph 86% 0 in 49 W/m2
08:59 67.6 °F 63 °F 29.8 in NE 0.9 mph 2 mph 85% 0 in 54 W/m2
09:04 68 °F 62.6 °F 29.8 in NNE 2 mph 4 mph 83% 0 in 65 W/m2
09:09 67.8 °F 62.8 °F 29.8 in Calm   2 mph 84% 0 in 83 W/m2
09:14 67.8 °F 62.8 °F 29.8 in NE 4 mph 5 mph 84% 0 in 104 W/m2
09:19 68.2 °F 63.1 °F 29.8 in ENE 2 mph 4 mph 84% 0 in 125 W/m2
09:24 68.4 °F 63.3 °F 29.8 in NE 0.9 mph 4 mph 84% 0 in 125 W/m2
09:29 68.5 °F 63.1 °F 29.8 in NE 2.9 mph 6 mph 83% 0 in 137 W/m2
09:34 68.5 °F 63.5 °F 29.8 in NE 2 mph 3 mph 84% 0 in 272 W/m2
09:39 68.9 °F 63.5 °F 29.8 in ESE 2 mph 4 mph 83% 0 in 156 W/m2
09:44 69.3 °F 63.9 °F 29.8 in Calm   3 mph 83% 0 in 176 W/m2
09:49 69.4 °F 64 °F 29.8 in NE 0.9 mph 7 mph 83% 0 in 167 W/m2
09:54 69.8 °F 64 °F 29.8 in ESE 2.9 mph 4 mph 82% 0 in 181 W/m2
09:59 70.3 °F 64.2 °F 29.8 in Calm   3 mph 81% 0 in 176 W/m2
10:04 70.5 °F 64 °F 29.8 in SE 2 mph 4 mph 80% 0 in 199 W/m2
10:09 70.9 °F 64.4 °F 29.8 in East 0.9 mph 4 mph 80% 0 in 202 W/m2
10:14 70.7 °F 63.9 °F 29.8 in ESE 2 mph 4 mph 79% 0 in 251 W/m2
10:19 70.9 °F 64.4 °F 29.8 in NE 0.9 mph 4 mph 80% 0 in 406 W/m2
10:24 71.1 °F 64.2 °F 29.8 in ENE 0.9 mph 4 mph 79% 0 in 381 W/m2
10:29 71.4 °F 64.2 °F 29.8 in SE 0.9 mph 6 mph 78% 0 in 387 W/m2
10:34 71.6 °F 64 °F 29.8 in Calm   2 mph 77% 0 in 408 W/m2
10:39 71.8 °F 64.2 °F 29.8 in NNW 4 mph 5 mph 77% 0 in 489 W/m2
10:44 72.1 °F 64.6 °F 29.8 in SE 2 mph 5 mph 77% 0 in 621 W/m2
10:49 72.5 °F 64.6 °F 29.8 in East 0.9 mph 4 mph 76% 0 in 635 W/m2
10:54 73 °F 64.6 °F 29.8 in East 2 mph 5 mph 75% 0 in 624 W/m2
10:59 73.8 °F 64.9 °F 29.8 in NNW 2 mph 3 mph 74% 0 in 582 W/m2
11:04 73.8 °F 64.2 °F 29.8 in NW 2 mph 5 mph 72% 0 in 635 W/m2
11:09 73.8 °F 63.7 °F 29.8 in WNW 4 mph 7 mph 71% 0 in 636 W/m2
11:14 73.6 °F 64 °F 29.8 in SW 0.9 mph 2 mph 72% 0 in 638 W/m2
11:19 73.8 °F 63.7 °F 29.8 in Calm   7 mph 71% 0 in 689 W/m2
11:24 74.7 °F 64.2 °F 29.8 in East 0.9 mph 2 mph 70% 0 in 691 W/m2
11:29 75.6 °F 64.8 °F 29.8 in ENE 2 mph 5 mph 69% 0 in 691 W/m2
11:34 75.7 °F 65.3 °F 29.8 in East 2 mph 4 mph 70% 0 in 731 W/m2
11:40 76.3 °F 65.3 °F 29.8 in South 0.9 mph 5 mph 69% 0 in 726 W/m2
11:50 76.8 °F 64.6 °F 29.8 in East 4 mph 6 mph 66% 0 in 656 W/m2
11:55 76.6 °F 64 °F 29.8 in West 2.9 mph 6 mph 65% 0 in 640 W/m2
12:00 76.6 °F 64.9 °F 29.8 in East 2.9 mph 3 mph 67% 0 in 137 W/m2
12:05 76.6 °F 64.4 °F 29.8 in East 0.9 mph 5 mph 66% 0 in 137 W/m2
12:15 76.3 °F 64 °F 29.8 in Calm   2 mph 66% 0 in 239 W/m2
12:20 76.3 °F 64 °F 29.8 in NW 2 mph 2 mph 66% 0 in 838 W/m2
12:25 76.8 °F 62.8 °F 29.8 in Calm   2 mph 62% 0 in 213 W/m2
12:30 77.2 °F 62.6 °F 29.8 in West 2 mph 3 mph 61% 0 in 387 W/m2
12:35 77.2 °F 62.6 °F 29.8 in NW 2.9 mph 3 mph 61% 0 in 258 W/m2
12:40 77.2 °F 63.1 °F 29.8 in East 2.9 mph 4 mph 62% 0 in 635 W/m2
12:45 77.9 °F 63.9 °F 29.8 in East 4 mph 4 mph 62% 0 in 714 W/m2
12:50 78.4 °F 63.9 °F 29.8 in WSW 2.9 mph 3 mph 61% 0 in 893 W/m2
12:55 79.2 °F 63.7 °F 29.8 in NNW 0.9 mph 2 mph 59% 0 in 821 W/m2
13:00 79.5 °F 62.4 °F 29.8 in NE 2 mph 6 mph 56% 0 in 668 W/m2
13:05 79.3 °F 62.8 °F 29.8 in SSE 0.9 mph 4 mph 57% 0 in 782 W/m2
13:10 79.9 °F 63.3 °F 29.8 in NW 2.9 mph 6 mph 57% 0 in 749 W/m2
13:15 80.2 °F 63.1 °F 29.8 in East 2 mph 4 mph 56% 0 in 793 W/m2
13:20 80.4 °F 62.8 °F 29.8 in SSE 0.9 mph 4 mph 55% 0 in 717 W/m2
13:25 80.2 °F 62.6 °F 29.8 in NE 2.9 mph 5 mph 55% 0 in 693 W/m2
13:30 80.2 °F 62.6 °F 29.8 in ENE 2.9 mph 8 mph 55% 0 in 631 W/m2
13:35 80.2 °F 62.6 °F 29.8 in ENE 4 mph 7 mph 55% 0 in 643 W/m2
13:40 80.1 °F 61.3 °F 29.8 in Calm   8 mph 53% 0 in 596 W/m2
13:45 80.2 °F 62.1 °F 29.8 in NE 2.9 mph 3 mph 54% 0 in 789 W/m2
13:50 80.8 °F 62.1 °F 29.8 in East 2 mph 6 mph 53% 0 in 777 W/m2
13:55 81 °F 62.2 °F 29.8 in Calm   4 mph 53% 0 in 795 W/m2
14:00 81 °F 62.8 °F 29.8 in ENE 6 mph 7 mph 54% 0 in 566 W/m2
14:05 81 °F 62.2 °F 29.8 in ESE 2 mph 7 mph 53% 0 in 744 W/m2
14:10 80.8 °F 61.5 °F 29.8 in NNW 4 mph 4 mph 52% 0 in 677 W/m2
14:15 80.8 °F 62.1 °F 29.8 in ESE 2 mph 3 mph 53% 0 in 459 W/m2
14:20 81 °F 61.7 °F 29.8 in SW 2.9 mph 3 mph 52% 0 in 633 W/m2
14:25 81 °F 61.7 °F 29.8 in East 2.9 mph 5 mph 52% 0 in 773 W/m2
14:35 81.7 °F 62.4 °F 29.8 in SE 2.9 mph 4 mph 52% 0 in 719 W/m2
14:40 81.9 °F 61.9 °F 29.8 in Calm   3 mph 51% 0 in 775 W/m2
14:45 82.2 °F 62.2 °F 29.8 in NNE 2 mph 5 mph 51% 0 in 731 W/m2
14:50 82.6 °F 62.1 °F 29.8 in NNE 0.9 mph 5 mph 50% 0 in 661 W/m2
14:55 82.2 °F 61.7 °F 29.8 in ENE 4.9 mph 7 mph 50% 0 in 830 W/m2
15:00 81.9 °F 61.3 °F 29.8 in ENE 2 mph 4 mph 50% 0 in 840 W/m2
15:05 81.5 °F 62.2 °F 29.8 in SE 6 mph 6 mph 52% 0 in 740 W/m2
15:10 81.7 °F 61.9 °F 29.8 in Calm   2 mph 51% 0 in 796 W/m2
15:15 82 °F 61.5 °F 29.8 in ESE 0.9 mph 3 mph 50% 0 in 202 W/m2
15:20 82 °F 61.5 °F 29.8 in East 2.9 mph 6 mph 50% 0 in 722 W/m2
15:25 82.4 °F 61.9 °F 29.8 in East 4.9 mph 7 mph 50% 0 in 805 W/m2
15:30 82.8 °F 61.7 °F 29.8 in ESE 0.9 mph 3 mph 49% 0 in 796 W/m2
15:35 82.8 °F 61.7 °F 29.8 in ESE 2.9 mph 4 mph 49% 0 in 710 W/m2
15:40 82.9 °F 61.2 °F 29.8 in Calm   2 mph 48% 0 in 742 W/m2
15:45 82.9 °F 60.6 °F 29.8 in North 0.9 mph 2 mph 47% 0 in 802 W/m2
15:50 83.1 °F 61.3 °F 29.8 in North 0.9 mph 3 mph 48% 0 in 468 W/m2
15:55 83.5 °F 61.7 °F 29.8 in East 2 mph 5 mph 48% 0 in 751 W/m2
16:01 83.7 °F 61.3 °F 29.8 in SW 0.9 mph 3 mph 47% 0 in 670 W/m2
16:06 83.8 °F 62.1 °F 29.8 in ESE 2.9 mph 3 mph 48% 0 in 589 W/m2
16:11 84 °F 61 °F 29.8 in East 6.9 mph 7 mph 46% 0 in 729 W/m2
16:16 84 °F 61.7 °F 29.8 in SE 2 mph 7 mph 47% 0 in 675 W/m2
16:21 84.4 °F 61.3 °F 29.8 in ENE 2 mph 3 mph 46% 0 in 712 W/m2
16:26 84.7 °F 61 °F 29.8 in SE 0.9 mph 7 mph 45% 0 in 705 W/m2
16:31 84.7 °F 61 °F 29.8 in ENE 4 mph 6 mph 45% 0 in 671 W/m2
16:36 84.4 °F 61.3 °F 29.8 in ENE 0.9 mph 3 mph 46% 0 in 148 W/m2
16:41 83.8 °F 60.8 °F 29.8 in East 0.9 mph 3 mph 46% 0 in 167 W/m2
16:46 83.5 °F 60.4 °F 29.8 in ESE 0.9 mph 3 mph 46% 0 in 162 W/m2
16:51 82.9 °F 60.6 °F 29.8 in Calm   2 mph 47% 0 in 174 W/m2
16:56 82.4 °F 60.1 °F 29.8 in Calm   3 mph 47% 0 in 153 W/m2
17:01 82.2 °F 59.9 °F 29.8 in ESE 2 mph 2 mph 47% 0 in 584 W/m2
17:06 82.6 °F 60.3 °F 29.8 in North 2 mph 2 mph 47% 0 in 267 W/m2
17:11 82.8 °F 59.2 °F 29.8 in Calm   3 mph 45% 0 in 155 W/m2
17:16 82.8 °F 59.9 °F 29.8 in Calm   2 mph 46% 0 in 130 W/m2
17:21 82.8 °F 60.4 °F 29.8 in NNE 0.9 mph 3 mph 47% 0 in 570 W/m2
17:26 83.3 °F 59.7 °F 29.8 in WSW 0.9 mph 6 mph 45% 0 in 534 W/m2
17:31 83.8 °F 60.3 °F 29.8 in ESE 2 mph 7 mph 45% 0 in 487 W/m2
17:36 84 °F 59.7 °F 29.8 in North 0.9 mph 4 mph 44% 0 in 454 W/m2
17:41 84 °F 61 °F 29.8 in East 0.9 mph 7 mph 46% 0 in 476 W/m2
17:46 84.6 °F 60.3 °F 29.8 in Calm   1 mph 44% 0 in 434 W/m2
17:51 85.3 °F 60.3 °F 29.8 in Calm   4 mph 43% 0 in 438 W/m2
17:56 85.5 °F 60.4 °F 29.8 in Calm   2 mph 43% 0 in 410 W/m2
18:01 85.6 °F 60.6 °F 29.8 in East 2 mph 3 mph 43% 0 in 443 W/m2
18:06 85.6 °F 59.9 °F 29.8 in Calm   2 mph 42% 0 in 411 W/m2
18:11 86 °F 59.5 °F 29.8 in Calm   2 mph 41% 0 in 371 W/m2
18:16 86.4 °F 59.9 °F 29.8 in SSW 0.9 mph 1 mph 41% 0 in 406 W/m2
18:21 86.9 °F 59.7 °F 29.8 in West 2.9 mph 4 mph 40% 0 in 403 W/m2
18:26 86.4 °F 59.2 °F 29.8 in East 0.9 mph 3 mph 40% 0 in 373 W/m2
18:31 86.4 °F 58.5 °F 29.7 in NNW 2 mph 2 mph 39% 0 in 345 W/m2
18:36 86 °F 58.8 °F 29.7 in WSW 0.9 mph 3 mph 40% 0 in 329 W/m2
18:41 85.6 °F 58.5 °F 29.7 in Calm     40% 0 in 127 W/m2
18:46 85.8 °F 58.6 °F 29.7 in Calm   1 mph 40% 0 in 156 W/m2
18:51 86.2 °F 59.7 °F 29.7 in Calm   2 mph 41% 0 in 84 W/m2
18:56 85.6 °F 60.6 °F 29.7 in South 0.9 mph 3 mph 43% 0 in 125 W/m2
19:01 85.3 °F 60.3 °F 29.7 in East 0.9 mph 4 mph 43% 0 in 243 W/m2
19:06 84.9 °F 59.9 °F 29.7 in ESE 0.9 mph 3 mph 43% 0 in 188 W/m2
19:11 84.9 °F 60.6 °F 29.7 in Calm   2 mph 44% 0 in 179 W/m2
19:16 84.7 °F 59.7 °F 29.7 in Calm   1 mph 43% 0 in 127 W/m2
19:21 84.7 °F 60.4 °F 29.7 in Calm   1 mph 44% 0 in 49 W/m2
19:26 84.7 °F 60.4 °F 29.7 in Calm   1 mph 44% 0 in 46 W/m2
19:31 84.6 °F 61.5 °F 29.7 in Calm   1 mph 46% 0 in 46 W/m2
19:36 84 °F 61.7 °F 29.7 in Calm     47% 0 in 44 W/m2
19:41 83.5 °F 61.7 °F 29.7 in Calm     48% 0 in 39 W/m2
19:46 82.8 °F 61 °F 29.7 in Calm     48% 0 in 37 W/m2
19:51 82.2 °F 61.7 °F 29.7 in Calm     50% 0 in 40 W/m2
19:56 81.5 °F 61.7 °F 29.7 in Calm     51% 0 in 42 W/m2
20:01 81 °F 61.2 °F 29.7 in Calm   1 mph 51% 0 in 30 W/m2
20:06 80.2 °F 61 °F 29.7 in Calm   1 mph 52% 0 in 28 W/m2
20:11 79.7 °F 61 °F 29.7 in SE 2 mph 2 mph 53% 0 in 30 W/m2
20:16 79.2 °F 61.2 °F 29.7 in Calm     54% 0 in 26 W/m2
20:21 78.8 °F 60.8 °F 29.7 in SE 0.9 mph 2 mph 54% 0 in 25 W/m2
20:26 78.4 °F 61 °F 29.7 in SE 0.9 mph 1 mph 55% 0 in 19 W/m2
20:31 78.1 °F 61.2 °F 29.7 in Calm     56% 0 in 12 W/m2
20:36 77.7 °F 61.3 °F 29.7 in Calm     57% 0 in 5 W/m2
20:41 77.4 °F 60.4 °F 29.7 in SE 0.9 mph 2 mph 56% 0 in 0 W/m2
20:46 77 °F 60.1 °F 29.7 in SE 0.9 mph 2 mph 56% 0 in 0 W/m2
20:51 76.6 °F 60.3 °F 29.7 in Calm     57% 0 in 0 W/m2
20:56 76.3 °F 59.9 °F 29.7 in Calm   2 mph 57% 0 in 0 W/m2
21:01 75.9 °F 60.1 °F 29.8 in Calm     58% 0 in 0 W/m2
21:06 75.6 °F 59.7 °F 29.8 in Calm     58% 0 in 0 W/m2
21:11 75.4 °F 60.1 °F 29.8 in Calm     59% 0 in 0 W/m2
21:16 74.8 °F 59.5 °F 29.8 in Calm     59% 0 in 0 W/m2
21:21 74.7 °F 60.3 °F 29.8 in Calm     61% 0 in 0 W/m2
21:26 74.3 °F 60.4 °F 29.8 in Calm     62% 0 in 0 W/m2
21:31 73.9 °F 59.7 °F 29.8 in Calm     61% 0 in 0 W/m2
21:36 73.8 °F 59.9 °F 29.8 in SE 0.9 mph 1 mph 62% 0 in 0 W/m2
21:41 73.2 °F 59.9 °F 29.8 in Calm     63% 0 in 0 W/m2
21:46 73 °F 60.1 °F 29.8 in Calm     64% 0 in 0 W/m2
21:51 72.7 °F 59.7 °F 29.8 in Calm     64% 0 in 0 W/m2
21:56 72.3 °F 59.5 °F 29.8 in Calm     64% 0 in 0 W/m2
22:01 72.1 °F 59.7 °F 29.8 in Calm     65% 0 in 0 W/m2
22:07 72 °F 59.5 °F 29.8 in SE 2 mph 2 mph 65% 0 in 0 W/m2
22:12 71.8 °F 59.4 °F 29.8 in Calm     65% 0 in 0 W/m2
22:17 71.6 °F 59.2 °F 29.8 in SE 0.9 mph 2 mph 65% 0 in 0 W/m2
22:22 71.4 °F 59.5 °F 29.8 in Calm   1 mph 66% 0 in 0 W/m2
22:27 71.4 °F 59.9 °F 29.8 in Calm   2 mph 67% 0 in 0 W/m2
22:32 71.2 °F 59.7 °F 29.8 in Calm   1 mph 67% 0 in 0 W/m2
22:37 71.1 °F 59.9 °F 29.8 in SSW 0.9 mph 2 mph 68% 0 in 0 W/m2
22:42 70.9 °F 59.7 °F 29.8 in Calm     68% 0 in 0 W/m2
22:47 70.5 °F 59.9 °F 29.8 in Calm     69% 0 in 0 W/m2
22:52 70.3 °F 59.7 °F 29.8 in Calm     69% 0 in 0 W/m2
22:57 70.2 °F 59.5 °F 29.8 in Calm     69% 0 in 0 W/m2
23:02 70 °F 59.4 °F 29.8 in Calm     69% 0 in 0 W/m2
23:07 70 °F 59.4 °F 29.8 in Calm     69% 0 in 0 W/m2
23:12 69.8 °F 59.2 °F 29.8 in Calm     69% 0 in 0 W/m2
23:17 69.6 °F 59.4 °F 29.8 in Calm     70% 0 in 0 W/m2
23:22 69.6 °F 59.4 °F 29.8 in Calm     70% 0 in 0 W/m2
23:27 69.4 °F 59.2 °F 29.8 in Calm     70% 0 in 0 W/m2
23:32 69.4 °F 59.2 °F 29.8 in Calm     70% 0 in 0 W/m2
23:37 69.3 °F 59 °F 29.8 in Calm     70% 0 in 0 W/m2
23:42 69.1 °F 59.4 °F 29.8 in Calm     71% 0 in 0 W/m2
23:47 68.9 °F 59.2 °F 29.8 in Calm     71% 0 in 0 W/m2
23:52 68.7 °F 59.4 °F 29.8 in SW 0.9 mph 1 mph 72% 0 in 0 W/m2
23:57 68.5 °F 59.2 °F 29.8 in Calm     72% 0 in 0 W/m2
Juneau County Weather
Compliments of Weather Underground - 4 mb